Airfield :
LOGIN :

Register | Disclaimer

   EN    FR    IT 

 










Legend :    VFR   Marginal VFR   IFR   Intensive IFR   Very Intensive IFR
Visi :
Ceiling :
>= 8 km
>= 3000ft
5 to 8 km
1000 to 3000 ft
1500m to 5 km
500 to 1000 ft
800 to 1500m
200 to 500 ft
< 800m
< 200 ft
Symbols :   Thunderstorms  Fog  Heavy snow  Heavy precipitations  Wind > 20 kt
SIGMETs :     Misc.  Thunderstorms  Icing  Turbulence  Mountain Waves  Volcanic Ashes







- Airport Elevation : 392 ft
- IATA code : CDG
- Download approach charts


LFPG - Paris-Aeroport Charles De Gaulle

CURRENT METAR :
  • 220730Z 01011KT 320V100 2000 -DZ BR FEW001 BKN002 12/11 Q1030 TEMPO BKN002

EXPIRED METARs :
  • 220700Z 01010KT 1500 0800NE R27L/1000D R09R/1100D R26R/P2000 R08L/P2000 R26L/P2000 R08R/2000D R27R/0900D R09L/1100N BCFG BR SCT000 BKN002 11/10 Q1029 TEMPO 0800 BCFG BKN001
  • 220630Z 02007KT 360V090 3500 BR FEW002 BKN003 11/10 Q1029 TEMPO 0800 BCFG BKN001
  • 220600Z 01008G21KT 340V140 2500 1200NW R27L/P2000 R09R/1400U R26R/P2000 R08L/P2000 R26L/P2000 R08R/P2000 R27R/1900U R09L/1700U BR SCT001 BKN051 10/09 Q1029 TEMPO 0800 BCFG BKN001
  • 220530Z 01009KT 1200 0600N R27L/0700D R09R/0700D R26R/P2000 R08L/P2000 R26L/P2000 R08R/P2000 R27R/0900U R09L/1300D BCFG BR BKN000 BKN001 BKN050 10/10 Q1028 NOSIG
  • 220500Z 01008KT 350V150 3000 BR FEW003 BKN050 10/09 Q1028 NOSIG

TAF AMD TAF LFPG
Valid from the 22 at 06:00 until the 23 at 12:00 UTC


220604Z 2206/2312 02010KT 2500 BR BKN006 TX15/2312Z TN04/2305Z
TEMPO 2206/2208 0800 BCFG OVC001
BECMG 2208/2210 6000 NSW
BECMG 2210/2212 SCT013 BKN016
PROB30
TEMPO 2211/2215 02010G25KT
BECMG 2215/2217 CAVOK
BECMG 2305/2307 28005KT
ATIS : +33 1 48 62 10 92
No reported NOTAMs for that airfield.



MET'MAP, your aeronautical weather chart ! - Copyright ORBIFLY December 2007 - Disclaimer

ORBIFLY MET'MAP TEAM :

Programming & Development : Alexandra Zaïnal
Concept & Development : Baudouin d'Aumeries
Co-Development & Prog : Marc-Olivier Méhu
Technical & hardware support : Manuel Goepfert

Contact : metmap@orbifly.com




SOURCES & CREDITS :

   NOAA